createdAt,value
2018-09-06T00:01:06.961Z,17.20
2018-09-06T00:03:35.446Z,17.10
2018-09-06T00:06:04.082Z,17.10
2018-09-06T00:08:32.970Z,17.00
2018-09-06T00:11:01.492Z,16.90
2018-09-06T00:13:30.184Z,16.80
2018-09-06T00:15:58.722Z,16.80
2018-09-06T00:18:27.238Z,16.80
2018-09-06T00:20:55.723Z,16.80
2018-09-06T00:23:24.215Z,16.70
2018-09-06T00:25:52.692Z,16.70
2018-09-06T00:28:21.169Z,16.70
2018-09-06T00:30:49.681Z,16.90
2018-09-06T00:33:18.215Z,16.90
2018-09-06T00:35:46.669Z,17.00
2018-09-06T00:38:15.144Z,17.00
2018-09-06T00:40:43.657Z,17.10
2018-09-06T00:43:12.126Z,17.00
2018-09-06T00:45:40.630Z,16.90
2018-09-06T00:48:09.111Z,16.90
2018-09-06T00:50:39.631Z,16.90
2018-09-06T00:53:08.403Z,17.00
2018-09-06T00:55:37.321Z,17.00
2018-09-06T00:58:05.812Z,17.10
2018-09-06T01:00:34.338Z,17.10
2018-09-06T01:03:02.835Z,17.10
2018-09-06T01:05:31.733Z,17.10
2018-09-06T01:08:00.326Z,17.10
2018-09-06T01:10:29.033Z,17.10
2018-09-06T01:12:57.573Z,17.10
2018-09-06T01:15:26.057Z,17.20
2018-09-06T01:17:54.647Z,17.10
2018-09-06T01:20:23.229Z,17.10
2018-09-06T01:22:51.731Z,17.20
2018-09-06T01:25:20.236Z,17.10
2018-09-06T01:27:48.685Z,17.10
2018-09-06T01:30:17.122Z,17.10
2018-09-06T01:32:45.763Z,17.10
2018-09-06T01:35:14.340Z,17.10
2018-09-06T01:37:42.797Z,17.10
2018-09-06T01:40:11.325Z,17.10
2018-09-06T01:42:39.913Z,17.10
2018-09-06T01:45:08.405Z,17.10
2018-09-06T01:47:36.888Z,17.10
2018-09-06T01:50:05.654Z,17.10
2018-09-06T01:52:34.143Z,17.10
2018-09-06T01:55:02.733Z,17.00
2018-09-06T01:57:31.196Z,17.00
2018-09-06T01:59:59.757Z,17.00
2018-09-06T02:02:28.232Z,17.00
2018-09-06T02:04:56.701Z,17.00
2018-09-06T02:07:25.293Z,16.90
2018-09-06T02:09:55.461Z,16.90
2018-09-06T02:12:23.949Z,16.80
2018-09-06T02:14:52.446Z,16.90
2018-09-06T02:17:20.949Z,16.90
2018-09-06T02:19:49.423Z,16.90
2018-09-06T02:22:17.882Z,16.90
2018-09-06T02:24:46.344Z,16.80
2018-09-06T02:27:14.824Z,16.70
2018-09-06T02:29:43.278Z,16.60
2018-09-06T02:32:11.769Z,16.60
2018-09-06T02:34:41.219Z,16.50
2018-09-06T02:37:09.662Z,16.50
2018-09-06T02:39:38.147Z,16.50
2018-09-06T02:42:06.690Z,16.60
2018-09-06T02:44:35.143Z,16.60
2018-09-06T02:47:03.653Z,16.50
2018-09-06T02:49:37.586Z,16.40
2018-09-06T02:52:06.204Z,16.30
2018-09-06T02:54:34.685Z,16.40
2018-09-06T02:57:03.166Z,16.40
2018-09-06T02:59:31.722Z,16.50
2018-09-06T03:02:00.195Z,16.40
2018-09-06T03:04:28.696Z,16.40
2018-09-06T03:06:57.195Z,16.30
2018-09-06T03:09:25.718Z,16.30
2018-09-06T03:11:57.464Z,16.30
2018-09-06T03:14:26.458Z,16.30
2018-09-06T03:16:55.116Z,16.30
2018-09-06T03:19:23.718Z,16.20
2018-09-06T03:21:52.253Z,16.30
2018-09-06T03:24:20.712Z,16.30
2018-09-06T03:26:49.166Z,16.30
2018-09-06T03:29:17.647Z,16.40
2018-09-06T03:31:46.164Z,16.40
2018-09-06T03:34:14.719Z,16.40
2018-09-06T03:36:43.233Z,16.50
2018-09-06T03:39:11.712Z,16.50
2018-09-06T03:41:40.204Z,16.50
2018-09-06T03:44:08.829Z,16.40
2018-09-06T03:46:37.314Z,16.30
2018-09-06T03:49:05.822Z,16.20
2018-09-06T03:51:34.375Z,16.20
2018-09-06T03:54:02.847Z,16.20
2018-09-06T03:56:31.290Z,16.20
2018-09-06T03:58:59.822Z,16.30
2018-09-06T04:01:28.293Z,16.40
2018-09-06T04:03:56.758Z,16.40
2018-09-06T04:06:25.240Z,16.50
2018-09-06T04:08:53.724Z,16.60
2018-09-06T04:11:22.179Z,16.70
2018-09-06T04:13:50.665Z,16.60
2018-09-06T04:16:19.576Z,16.70
2018-09-06T04:18:48.040Z,16.70
2018-09-06T04:21:16.606Z,16.80
2018-09-06T04:23:45.111Z,16.70
2018-09-06T04:26:13.593Z,16.80
2018-09-06T04:28:42.114Z,16.80
2018-09-06T04:31:10.564Z,17.00
2018-09-06T04:33:39.187Z,17.00
2018-09-06T04:36:08.137Z,17.10
2018-09-06T04:38:36.611Z,17.10
2018-09-06T04:41:05.371Z,17.20
2018-09-06T04:43:33.959Z,17.30
2018-09-06T04:46:02.616Z,17.30
2018-09-06T04:48:31.298Z,17.40
2018-09-06T04:50:59.883Z,17.40
2018-09-06T04:53:28.332Z,17.40
2018-09-06T04:55:56.781Z,17.50
2018-09-06T04:58:25.279Z,17.40
2018-09-06T05:00:53.747Z,17.50
2018-09-06T05:03:22.221Z,17.50
2018-09-06T05:05:50.799Z,17.50
2018-09-06T05:08:19.319Z,17.50
2018-09-06T05:10:47.845Z,17.60
2018-09-06T05:13:16.335Z,17.60
2018-09-06T05:15:44.946Z,17.70
2018-09-06T05:18:13.514Z,17.80
2018-09-06T05:20:42.108Z,17.70
2018-09-06T05:23:10.599Z,17.70
2018-09-06T05:25:39.085Z,17.80
2018-09-06T05:28:07.567Z,17.90
2018-09-06T05:30:36.073Z,17.90
2018-09-06T05:33:04.518Z,17.90
2018-09-06T05:35:33.056Z,18.00
2018-09-06T05:38:01.509Z,18.00
2018-09-06T05:40:29.973Z,18.00
2018-09-06T05:42:58.459Z,18.00
2018-09-06T05:45:26.933Z,18.10
2018-09-06T05:47:57.528Z,18.10
2018-09-06T05:50:26.663Z,18.10
2018-09-06T05:52:55.112Z,18.10
2018-09-06T05:55:24.003Z,18.20
2018-09-06T05:57:53.234Z,18.20
2018-09-06T06:00:27.119Z,18.10
2018-09-06T06:02:57.076Z,18.10
2018-09-06T06:05:25.636Z,18.10
2018-09-06T06:08:05.483Z,18.10
2018-09-06T06:10:34.046Z,18.20
2018-09-06T06:13:02.510Z,18.20
2018-09-06T06:15:31.001Z,18.20
2018-09-06T06:17:59.527Z,18.20
2018-09-06T06:20:28.019Z,18.20
2018-09-06T06:22:56.661Z,18.30
2018-09-06T06:25:25.118Z,18.40
2018-09-06T06:27:53.610Z,18.40
2018-09-06T06:30:22.216Z,18.40
2018-09-06T06:32:50.698Z,18.50
2018-09-06T06:35:19.179Z,18.50
2018-09-06T06:37:47.701Z,18.50
2018-09-06T06:40:16.222Z,18.50
2018-09-06T06:42:44.696Z,18.40
2018-09-06T06:45:13.166Z,18.40
2018-09-06T06:47:41.696Z,18.40
2018-09-06T06:50:10.632Z,18.50
2018-09-06T06:52:39.192Z,18.50
2018-09-06T06:55:07.848Z,18.60
2018-09-06T06:57:36.333Z,18.70
2018-09-06T07:00:05.464Z,18.80
2018-09-06T07:02:34.202Z,19.00
2018-09-06T07:05:02.688Z,19.10
2018-09-06T07:07:31.180Z,19.20
2018-09-06T07:09:59.669Z,19.30
2018-09-06T07:12:28.131Z,19.20
2018-09-06T07:14:56.682Z,19.20
2018-09-06T07:17:25.160Z,19.30
2018-09-06T07:19:53.658Z,19.50
2018-09-06T07:22:22.126Z,19.80
2018-09-06T07:24:50.580Z,20.00
2018-09-06T07:27:19.031Z,19.90
2018-09-06T07:29:47.498Z,19.90
2018-09-06T07:32:15.957Z,19.70
2018-09-06T07:34:44.415Z,19.80
2018-09-06T07:37:12.905Z,19.80
2018-09-06T07:39:41.375Z,19.80
2018-09-06T07:42:09.831Z,19.70
2018-09-06T07:44:38.314Z,19.60
2018-09-06T07:47:06.831Z,19.40
2018-09-06T07:49:35.337Z,19.40
2018-09-06T07:52:03.877Z,19.40
2018-09-06T07:54:32.340Z,19.40
2018-09-06T07:57:00.777Z,19.40
2018-09-06T07:59:29.224Z,19.60
2018-09-06T08:01:57.799Z,19.80
2018-09-06T08:04:26.261Z,19.90
2018-09-06T08:06:54.748Z,20.10
2018-09-06T08:09:23.204Z,20.50
2018-09-06T08:11:51.669Z,20.50
2018-09-06T08:14:20.141Z,20.40
2018-09-06T08:16:48.684Z,20.30
2018-09-06T08:19:17.133Z,20.10
2018-09-06T08:21:45.595Z,20.20
2018-09-06T08:24:14.134Z,20.40
2018-09-06T08:26:42.563Z,20.70
2018-09-06T08:29:11.017Z,20.80
2018-09-06T08:31:39.568Z,21.20
2018-09-06T08:34:08.076Z,21.40
2018-09-06T08:36:36.590Z,21.40
2018-09-06T08:39:08.084Z,21.50
2018-09-06T08:41:36.815Z,21.80
2018-09-06T08:44:05.315Z,22.20
2018-09-06T08:46:33.823Z,22.40
2018-09-06T08:49:02.333Z,22.90
2018-09-06T08:51:31.037Z,23.60
2018-09-06T08:53:59.510Z,24.20
2018-09-06T08:56:27.979Z,24.30
2018-09-06T08:58:57.142Z,24.70
2018-09-06T09:01:31.072Z,24.80
2018-09-06T09:03:59.546Z,24.80
2018-09-06T09:06:28.050Z,24.50
2018-09-06T09:08:56.523Z,24.40
2018-09-06T09:11:25.079Z,23.80
2018-09-06T09:13:53.568Z,24.00
2018-09-06T09:16:22.004Z,23.80
2018-09-06T09:18:50.562Z,23.90
2018-09-06T09:21:19.067Z,24.00
2018-09-06T09:23:47.523Z,23.70
2018-09-06T09:26:16.077Z,23.70
2018-09-06T09:28:44.579Z,24.10
2018-09-06T09:31:13.057Z,24.60
2018-09-06T09:33:41.582Z,24.90
2018-09-06T09:36:10.146Z,24.80
2018-09-06T09:38:38.614Z,24.50
2018-09-06T09:41:07.160Z,24.30
2018-09-06T09:43:35.757Z,24.60
2018-09-06T09:48:31.891Z,24.40
2018-09-06T09:51:00.365Z,24.40
2018-09-06T09:53:28.815Z,24.30
2018-09-06T09:55:57.385Z,24.20
2018-09-06T09:58:25.843Z,24.00
2018-09-06T10:00:54.297Z,24.30
2018-09-06T10:03:28.178Z,24.20
2018-09-06T10:06:01.964Z,24.20
2018-09-06T10:08:35.781Z,23.70
2018-09-06T10:11:04.309Z,23.30
2018-09-06T10:13:32.772Z,23.00
2018-09-06T10:16:01.302Z,23.00
2018-09-06T10:18:29.801Z,22.70
2018-09-06T10:20:58.282Z,22.20
2018-09-06T10:23:26.770Z,21.90
2018-09-06T10:25:55.443Z,21.70
2018-09-06T10:28:24.023Z,22.10
2018-09-06T10:30:53.150Z,22.40
2018-09-06T10:33:21.646Z,22.70
2018-09-06T10:35:50.110Z,22.70
2018-09-06T10:38:18.647Z,22.30
2018-09-06T10:40:47.678Z,22.10
2018-09-06T10:43:16.224Z,22.10
2018-09-06T10:45:44.715Z,22.40
2018-09-06T10:48:13.218Z,23.00
2018-09-06T10:50:41.690Z,23.50
2018-09-06T10:53:10.200Z,23.70
2018-09-06T10:55:38.664Z,23.80
2018-09-06T10:58:07.766Z,23.80
2018-09-06T11:00:36.259Z,23.70
2018-09-06T11:03:05.449Z,24.30
2018-09-06T11:05:33.973Z,24.90
2018-09-06T11:08:02.601Z,25.70
2018-09-06T11:10:31.042Z,26.30
2018-09-06T11:12:59.484Z,26.90
2018-09-06T11:15:28.016Z,27.20
2018-09-06T11:17:56.832Z,27.50
2018-09-06T11:20:25.244Z,27.40
2018-09-06T11:22:53.747Z,27.10
2018-09-06T11:25:22.212Z,26.50
2018-09-06T11:27:50.660Z,26.30
2018-09-06T11:30:19.202Z,26.30
2018-09-06T11:32:47.667Z,25.70
2018-09-06T11:35:16.158Z,25.80
2018-09-06T11:37:44.672Z,26.20
2018-09-06T11:40:13.272Z,26.50
2018-09-06T11:42:41.664Z,26.50
2018-09-06T11:45:10.169Z,26.80
2018-09-06T11:47:38.668Z,27.30
2018-09-06T11:50:07.150Z,28.30
2018-09-06T11:52:35.628Z,28.50
2018-09-06T11:55:04.179Z,27.80
2018-09-06T11:57:32.661Z,26.90
2018-09-06T12:00:01.179Z,26.50
2018-09-06T12:02:29.653Z,25.80
2018-09-06T12:04:58.140Z,25.30
2018-09-06T12:07:26.627Z,25.00
2018-09-06T12:09:55.098Z,24.80
2018-09-06T12:12:24.680Z,25.30
2018-09-06T12:14:53.163Z,25.90
2018-09-06T12:17:21.628Z,26.30
2018-09-06T12:19:50.113Z,26.90
2018-09-06T12:22:18.638Z,28.00
2018-09-06T12:24:47.166Z,28.90
2018-09-06T12:27:15.637Z,29.30
2018-09-06T12:29:44.161Z,28.70
2018-09-06T12:32:12.663Z,28.60
2018-09-06T12:34:41.121Z,28.30
2018-09-06T12:37:12.179Z,28.50
2018-09-06T12:39:41.411Z,29.70
2018-09-06T12:42:09.946Z,30.50
2018-09-06T12:44:38.453Z,29.50
2018-09-06T12:47:07.003Z,28.30
2018-09-06T12:49:35.503Z,27.40
2018-09-06T12:52:04.033Z,26.20
2018-09-06T12:54:32.565Z,25.20
2018-09-06T12:57:01.066Z,24.70
2018-09-06T12:59:29.635Z,24.70
2018-09-06T13:01:58.108Z,26.50
2018-09-06T13:04:26.575Z,28.20
2018-09-06T13:06:55.068Z,29.70
2018-09-06T13:09:23.503Z,29.80
2018-09-06T13:11:53.945Z,28.90
2018-09-06T13:14:22.449Z,28.20
2018-09-06T13:16:50.914Z,27.50
2018-09-06T13:19:19.366Z,26.40
2018-09-06T13:21:47.847Z,25.00
2018-09-06T13:24:16.310Z,24.50
2018-09-06T13:26:44.783Z,24.30
2018-09-06T13:29:13.250Z,24.40
2018-09-06T13:31:41.781Z,24.70
2018-09-06T13:34:10.237Z,25.30
2018-09-06T13:36:38.767Z,25.70
2018-09-06T13:39:09.141Z,27.20
2018-09-06T13:41:37.609Z,28.00
2018-09-06T13:44:06.079Z,27.80
2018-09-06T13:46:34.568Z,29.50
2018-09-06T13:49:03.253Z,29.60
2018-09-06T13:51:31.729Z,28.30
2018-09-06T13:54:00.175Z,26.80
2018-09-06T13:56:28.692Z,25.50
2018-09-06T13:58:57.461Z,24.70
2018-09-06T14:01:25.915Z,24.70
2018-09-06T14:03:54.378Z,25.40
2018-09-06T14:06:22.872Z,27.50
2018-09-06T14:08:51.431Z,28.50
2018-09-06T14:11:19.889Z,28.30
2018-09-06T14:13:48.436Z,27.90
2018-09-06T14:16:17.001Z,27.40
2018-09-06T14:18:45.444Z,28.10
2018-09-06T14:21:13.946Z,28.90
2018-09-06T14:23:42.389Z,28.50
2018-09-06T14:26:10.839Z,27.50
2018-09-06T14:28:39.328Z,27.20
2018-09-06T14:31:07.786Z,28.10
2018-09-06T14:33:36.251Z,30.30
2018-09-06T14:36:04.720Z,31.70
2018-09-06T14:38:33.196Z,32.00
2018-09-06T14:41:01.650Z,30.60
2018-09-06T14:43:30.106Z,29.40
2018-09-06T14:45:58.568Z,29.10
2018-09-06T14:48:27.011Z,29.20
2018-09-06T14:50:55.567Z,28.80
2018-09-06T14:53:23.985Z,27.80
2018-09-06T14:55:52.447Z,26.50
2018-09-06T14:58:20.948Z,25.30
2018-09-06T15:00:49.407Z,24.70
2018-09-06T15:03:17.850Z,24.60
2018-09-06T15:05:46.348Z,24.70
2018-09-06T15:08:14.785Z,24.40
2018-09-06T15:10:43.360Z,24.20
2018-09-06T15:13:11.834Z,23.90
2018-09-06T15:15:40.290Z,24.00
2018-09-06T15:18:09.320Z,24.10
2018-09-06T15:20:37.816Z,24.30
2018-09-06T15:23:06.304Z,24.40
2018-09-06T15:25:34.731Z,24.60
2018-09-06T15:28:03.218Z,24.70
2018-09-06T15:30:31.685Z,24.50
2018-09-06T15:33:00.182Z,24.60
2018-09-06T15:35:28.669Z,24.80
2018-09-06T15:37:57.124Z,25.20
2018-09-06T15:40:25.561Z,25.00
2018-09-06T15:42:58.256Z,24.90
2018-09-06T15:45:26.741Z,24.80
2018-09-06T15:47:55.199Z,24.50
2018-09-06T15:50:23.659Z,24.40
2018-09-06T15:52:52.459Z,24.10
2018-09-06T15:55:21.200Z,23.90
2018-09-06T15:57:49.652Z,23.60
2018-09-06T16:00:18.121Z,23.30
2018-09-06T16:02:46.832Z,23.30
2018-09-06T16:05:15.296Z,23.10
2018-09-06T16:07:43.803Z,22.80
2018-09-06T16:10:12.247Z,22.50
2018-09-06T16:12:40.714Z,22.30
2018-09-06T16:15:09.209Z,22.20
2018-09-06T16:17:37.687Z,22.10
2018-09-06T16:20:06.160Z,21.80
2018-09-06T16:22:34.611Z,21.90
2018-09-06T16:25:03.089Z,22.10
2018-09-06T16:27:31.550Z,22.10
2018-09-06T16:30:00.057Z,22.30
2018-09-06T16:32:28.632Z,22.60
2018-09-06T16:34:57.085Z,22.80
2018-09-06T16:37:25.640Z,23.00
2018-09-06T16:39:54.165Z,23.30
2018-09-06T16:42:22.607Z,23.10
2018-09-06T16:44:51.045Z,22.70
2018-09-06T16:47:19.520Z,22.40
2018-09-06T16:49:48.055Z,22.20
2018-09-06T16:52:16.869Z,21.80
2018-09-06T16:54:45.478Z,21.60
2018-09-06T16:57:13.947Z,21.30
2018-09-06T16:59:42.509Z,21.20
2018-09-06T17:02:11.353Z,21.10
2018-09-06T17:04:39.864Z,21.10
2018-09-06T17:07:08.304Z,21.00
2018-09-06T17:09:36.786Z,20.90
2018-09-06T17:12:05.288Z,20.90
2018-09-06T17:14:33.818Z,21.00
2018-09-06T17:17:02.355Z,21.00
2018-09-06T17:19:30.841Z,21.00
2018-09-06T17:21:59.285Z,21.00
2018-09-06T17:24:27.747Z,20.90
2018-09-06T17:26:56.210Z,20.80
2018-09-06T17:29:24.704Z,20.60
2018-09-06T17:31:53.185Z,20.50
2018-09-06T17:34:21.685Z,20.60
2018-09-06T17:36:50.125Z,20.50
2018-09-06T17:39:18.744Z,20.60
2018-09-06T17:41:47.229Z,20.60
2018-09-06T17:44:15.684Z,20.60
2018-09-06T17:46:44.144Z,20.40
2018-09-06T17:49:12.628Z,20.20
2018-09-06T17:51:41.076Z,20.00
2018-09-06T17:54:09.606Z,19.80
2018-09-06T17:56:38.272Z,19.60
2018-09-06T17:59:06.791Z,19.30
2018-09-06T18:01:40.855Z,19.10
2018-09-06T18:04:09.345Z,19.00
2018-09-06T18:06:37.811Z,18.80
2018-09-06T18:09:12.742Z,18.70
2018-09-06T18:11:42.029Z,18.60
2018-09-06T18:14:10.817Z,18.40
2018-09-06T18:16:39.398Z,18.20
2018-09-06T18:19:07.965Z,18.00
2018-09-06T18:21:36.449Z,17.90
2018-09-06T18:24:05.038Z,17.70
2018-09-06T18:26:33.542Z,17.60
2018-09-06T18:29:02.033Z,17.40
2018-09-06T18:31:30.557Z,17.40
2018-09-06T18:33:59.060Z,17.50
2018-09-06T18:36:27.575Z,17.60
2018-09-06T18:38:56.099Z,17.60
2018-09-06T18:41:24.555Z,17.50
2018-09-06T18:43:53.086Z,17.30
2018-09-06T18:46:21.545Z,17.10
2018-09-06T18:48:50.693Z,16.90
2018-09-06T18:51:19.235Z,16.70
2018-09-06T18:53:47.750Z,16.70
2018-09-06T18:56:16.257Z,16.60
2018-09-06T18:58:44.738Z,16.60
2018-09-06T19:01:13.275Z,16.60
2018-09-06T19:03:41.741Z,16.40
2018-09-06T19:06:10.214Z,16.30
2018-09-06T19:08:38.743Z,16.20
2018-09-06T19:11:07.420Z,16.10
2018-09-06T19:13:35.882Z,16.00
2018-09-06T19:16:04.383Z,16.00
2018-09-06T19:18:32.886Z,15.90
2018-09-06T19:21:01.335Z,15.90
2018-09-06T19:23:29.827Z,15.90
2018-09-06T19:25:58.294Z,15.80
2018-09-06T19:28:26.764Z,15.90
2018-09-06T19:30:55.268Z,16.00
2018-09-06T19:33:23.728Z,15.90
2018-09-06T19:35:52.321Z,15.90
2018-09-06T19:38:20.841Z,15.80
2018-09-06T19:40:49.758Z,15.80
2018-09-06T19:43:18.244Z,15.80
2018-09-06T19:45:46.755Z,15.70
2018-09-06T19:48:15.231Z,15.60
2018-09-06T19:50:43.707Z,15.50
2018-09-06T19:53:12.187Z,15.40
2018-09-06T19:55:40.640Z,15.30
2018-09-06T19:58:09.093Z,15.20
2018-09-06T20:00:37.593Z,15.00
2018-09-06T20:03:06.085Z,14.90
2018-09-06T20:05:34.661Z,14.90
2018-09-06T20:08:03.220Z,14.80
2018-09-06T20:10:31.613Z,14.70
2018-09-06T20:13:00.124Z,14.60
2018-09-06T20:15:28.602Z,14.60
2018-09-06T20:17:57.079Z,14.50
2018-09-06T20:20:25.577Z,14.50
2018-09-06T20:22:54.111Z,14.60
2018-09-06T20:25:22.619Z,14.70
2018-09-06T20:27:51.124Z,14.80
2018-09-06T20:30:19.714Z,15.00
2018-09-06T20:32:48.208Z,15.10
2018-09-06T20:35:16.698Z,15.10
2018-09-06T20:37:45.223Z,15.20
2018-09-06T20:40:13.678Z,15.20
2018-09-06T20:42:42.157Z,15.30
2018-09-06T20:45:10.726Z,15.40
2018-09-06T20:47:39.236Z,15.50
2018-09-06T20:50:07.733Z,15.60
2018-09-06T20:52:36.453Z,15.70
2018-09-06T20:55:04.979Z,15.90
2018-09-06T20:57:33.684Z,16.00
2018-09-06T21:00:02.734Z,16.10
2018-09-06T21:02:39.499Z,16.10
2018-09-06T21:05:09.312Z,16.10
2018-09-06T21:07:37.842Z,16.00
2018-09-06T21:10:06.335Z,16.00
2018-09-06T21:12:34.834Z,15.80
2018-09-06T21:15:03.468Z,15.70
2018-09-06T21:17:32.105Z,15.40
2018-09-06T21:20:00.595Z,15.10
2018-09-06T21:22:29.049Z,14.90
2018-09-06T21:24:57.519Z,14.70
2018-09-06T21:27:25.984Z,14.50
2018-09-06T21:29:54.435Z,14.40
2018-09-06T21:32:22.917Z,14.30
2018-09-06T21:34:51.431Z,14.30
2018-09-06T21:37:20.068Z,14.30
2018-09-06T21:39:48.573Z,14.40
2018-09-06T21:42:17.039Z,14.60
2018-09-06T21:44:45.528Z,14.70
2018-09-06T21:47:13.989Z,14.90
2018-09-06T21:49:42.453Z,15.10
2018-09-06T21:52:10.905Z,15.20
2018-09-06T21:54:39.366Z,15.30
2018-09-06T21:57:07.925Z,15.40
2018-09-06T21:59:36.377Z,15.60
2018-09-06T22:02:04.845Z,15.70
2018-09-06T22:04:33.367Z,15.70
2018-09-06T22:07:01.802Z,15.80
2018-09-06T22:09:30.244Z,15.90
2018-09-06T22:11:58.696Z,16.00
2018-09-06T22:14:27.152Z,15.90
2018-09-06T22:16:55.616Z,15.60
2018-09-06T22:19:24.114Z,15.20
2018-09-06T22:21:52.596Z,14.90
2018-09-06T22:24:21.049Z,14.70
2018-09-06T22:26:49.533Z,14.50
2018-09-06T22:29:17.981Z,14.30
2018-09-06T22:31:46.424Z,14.10
2018-09-06T22:34:14.891Z,14.00
2018-09-06T22:36:43.344Z,14.10
2018-09-06T22:39:11.808Z,14.10
2018-09-06T22:41:40.316Z,14.10
2018-09-06T22:44:08.798Z,14.20
2018-09-06T22:46:37.221Z,14.20
2018-09-06T22:49:05.866Z,14.30
2018-09-06T22:51:34.312Z,14.40
2018-09-06T22:54:02.820Z,14.60
2018-09-06T22:56:31.386Z,14.70
2018-09-06T22:58:59.928Z,14.80
2018-09-06T23:01:28.397Z,14.90
2018-09-06T23:03:57.038Z,15.10
2018-09-06T23:06:25.528Z,15.20
2018-09-06T23:08:53.963Z,15.30
2018-09-06T23:11:22.486Z,15.30
2018-09-06T23:13:51.051Z,15.30
2018-09-06T23:16:19.551Z,15.50
2018-09-06T23:18:48.052Z,15.50
2018-09-06T23:21:16.528Z,15.70
2018-09-06T23:23:44.996Z,15.60
2018-09-06T23:26:13.479Z,15.70
2018-09-06T23:28:41.935Z,15.70
2018-09-06T23:31:10.392Z,15.70
2018-09-06T23:33:38.925Z,15.70
2018-09-06T23:36:07.413Z,15.80
2018-09-06T23:38:35.886Z,15.90
2018-09-06T23:41:04.389Z,16.00
2018-09-06T23:43:32.861Z,16.00
2018-09-06T23:46:01.307Z,16.20
2018-09-06T23:48:30.352Z,16.20
2018-09-06T23:50:59.219Z,16.20
2018-09-06T23:53:28.407Z,16.20
2018-09-06T23:55:56.906Z,16.20
2018-09-06T23:58:25.528Z,16.10
